Time;durP1;ratioP1;P1;durP2;ratioP2;P2;SDS_P1;SDS_P2;PMS_P1;PMS_P2;Temp;Humidity;BMP_temperature;BMP_pressure;BME280_temperature;BME280_humidity;BME280_pressure;Samples;Min_cycle;Max_cycle;Signal;HPM_P1;HPM_P2
2022/06/20 00:00:47;;;;;;;10.90;2.53;;;;;;;13.97;72.04;101306.69;5010036;28;20124;-88
2022/06/20 00:03:22;;;;;;;8.45;2.53;;;;;;;13.94;72.32;101299.66;4977904;28;20137;-87
2022/06/20 00:05:48;;;;;;;12.55;2.97;;;;;;;13.89;72.11;101295.38;5043820;28;20077;-88
2022/06/20 00:08:13;;;;;;;18.25;3.63;;;;;;;13.85;72.13;101299.94;5000724;28;20446;-88
2022/06/20 00:10:42;;;;;;;15.25;2.83;;;;;;;13.80;72.77;101303.63;5010563;28;20040;-88
2022/06/20 00:13:15;;;;;;;12.73;2.72;;;;;;;13.79;72.50;101304.56;5010251;28;20033;-88
2022/06/20 00:15:41;;;;;;;13.02;2.45;;;;;;;13.76;72.73;101302.84;4991003;28;20548;-88
2022/06/20 00:18:06;;;;;;;12.63;2.38;;;;;;;13.71;73.25;101289.66;5001038;28;20116;-88
2022/06/20 00:20:32;;;;;;;17.67;2.75;;;;;;;13.70;72.65;101298.56;5010447;28;20066;-88
2022/06/20 00:22:58;;;;;;;9.77;2.58;;;;;;;13.70;72.07;101303.03;4990719;28;20532;-87
2022/06/20 00:25:24;;;;;;;11.05;2.50;;;;;;;13.66;72.37;101291.59;4986056;28;20426;-88
2022/06/20 00:27:53;;;;;;;13.60;3.08;;;;;;;13.62;72.97;101308.53;5009849;28;20054;-87
2022/06/20 00:30:20;;;;;;;16.33;2.78;;;;;;;13.60;73.33;101315.72;4994049;28;20045;-87
2022/06/20 00:32:46;;;;;;;9.27;2.63;;;;;;;13.61;72.38;101337.88;5009312;28;20080;-87
2022/06/20 00:35:12;;;;;;;11.63;2.30;;;;;;;13.60;72.84;101347.66;5010075;28;20038;-88
2022/06/20 00:37:38;;;;;;;12.10;2.70;;;;;;;13.58;73.25;101356.59;4993512;28;20530;-87
2022/06/20 00:40:29;;;;;;;9.15;2.22;;;;;;;13.62;72.92;101360.88;5009973;28;20104;-88
2022/06/20 00:42:55;;;;;;;11.23;2.70;;;;;;;13.62;72.89;101388.38;5009590;28;20049;-88
2022/06/20 00:45:23;;;;;;;9.88;2.33;;;;;;;13.63;72.60;101408.78;5026264;28;20062;-88
2022/06/20 00:47:51;;;;;;;9.85;2.55;;;;;;;13.64;72.36;101433.59;5009892;28;20092;-88
2022/06/20 00:50:23;;;;;;;11.88;2.65;;;;;;;13.62;72.20;101433.63;5009671;28;20040;-88
2022/06/20 00:53:02;;;;;;;12.48;2.88;;;;;;;13.64;71.62;101449.56;5009671;28;20462;-87
2022/06/20 00:55:37;;;;;;;9.70;2.78;;;;;;;13.66;70.92;101472.56;4997567;28;20125;-84
2022/06/20 00:58:12;;;;;;;12.60;2.53;;;;;;;13.70;72.36;101500.00;5028456;28;20547;-84
2022/06/20 01:00:39;;;;;;;13.40;2.58;;;;;;;13.73;72.86;101523.88;5007483;28;20082;-84
2022/06/20 01:03:16;;;;;;;18.17;2.90;;;;;;;13.72;72.64;101523.00;4992800;28;20046;-84
2022/06/20 01:05:53;;;;;;;11.77;2.50;;;;;;;13.73;72.73;101516.75;5009563;28;20045;-84
2022/06/20 01:08:29;;;;;;;15.20;2.38;;;;;;;13.72;72.61;101498.13;5009556;28;20032;-84
2022/06/20 01:11:12;;;;;;;13.50;2.55;;;;;;;13.68;73.03;101480.53;5009560;28;20041;-84
2022/06/20 01:13:39;;;;;;;9.13;2.40;;;;;;;13.63;72.30;101464.66;4994707;28;20201;-84
2022/06/20 01:16:13;;;;;;;13.23;2.50;;;;;;;13.60;72.33;101451.44;5041327;28;20053;-84
2022/06/20 01:18:40;;;;;;;7.95;2.05;;;;;;;13.60;72.88;101445.22;5043055;28;20029;-84
2022/06/20 01:21:13;;;;;;;13.85;2.55;;;;;;;13.59;72.86;101444.34;5013446;28;20037;-84
2022/06/20 01:23:48;;;;;;;9.93;2.47;;;;;;;13.61;72.91;101453.16;5013390;28;20081;-84
2022/06/20 01:26:35;;;;;;;11.75;2.67;;;;;;;13.62;73.70;101427.41;5029585;28;20084;-84
2022/06/20 01:29:05;;;;;;;7.63;2.20;;;;;;;13.59;73.76;101420.38;4983620;28;20161;-84
2022/06/20 01:31:37;;;;;;;15.27;2.60;;;;;;;13.57;73.68;101418.69;5027612;28;20034;-84
2022/06/20 01:34:03;;;;;;;15.25;2.50;;;;;;;13.54;74.44;101403.66;5014245;28;20030;-84
2022/06/20 01:39:17;;;;;;;8.95;1.85;;;;;;;13.50;74.18;101415.28;5009416;28;20037;-84
2022/06/20 01:44:35;;;;;;;12.70;2.92;;;;;;;13.47;74.20;101410.91;5000961;28;20052;-84
2022/06/20 01:47:00;;;;;;;13.85;2.78;;;;;;;13.46;74.66;101403.00;5013966;28;20038;-84
2022/06/20 01:49:30;;;;;;;10.90;2.30;;;;;;;13.45;74.69;101385.25;4996370;28;20128;-84
2022/06/20 01:51:58;;;;;;;8.10;2.80;;;;;;;13.43;75.16;101384.47;5029133;28;20029;-84
2022/06/20 01:54:27;;;;;;;11.13;2.67;;;;;;;13.39;74.73;101378.31;5008582;28;20509;-84
2022/06/20 01:56:53;;;;;;;12.25;3.17;;;;;;;13.38;74.83;101373.03;5020947;28;20050;-84
2022/06/20 01:59:23;;;;;;;8.05;2.10;;;;;;;13.34;75.53;101357.16;4993101;28;20034;-84
2022/06/20 02:01:51;;;;;;;6.75;2.08;;;;;;;13.34;75.62;101361.59;5021832;28;20050;-84
2022/06/20 02:04:19;;;;;;;11.75;2.35;;;;;;;13.31;74.94;101367.88;4998746;28;20487;-84
2022/06/20 02:06:47;;;;;;;9.05;1.95;;;;;;;13.30;74.60;101371.47;5012532;28;20504;-84
2022/06/20 02:09:14;;;;;;;14.85;2.72;;;;;;;13.29;76.45;101372.34;4995302;28;20029;-84
2022/06/20 02:11:45;;;;;;;7.65;2.05;;;;;;;13.27;75.58;101376.84;5000128;28;20038;-84
2022/06/20 02:14:21;;;;;;;10.45;2.50;;;;;;;13.25;75.42;101373.31;5013921;28;20060;-84
2022/06/20 02:16:54;;;;;;;8.52;2.33;;;;;;;13.20;75.86;101355.72;5001448;28;20033;-84
2022/06/20 02:19:25;;;;;;;12.85;2.22;;;;;;;13.21;75.52;101353.03;5012568;28;20131;-84
2022/06/20 02:21:56;;;;;;;9.43;2.35;;;;;;;13.17;76.50;101335.38;5012589;28;20366;-84
2022/06/20 02:24:25;;;;;;;15.50;3.15;;;;;;;13.16;75.85;101331.00;5012057;28;20037;-84
2022/06/20 02:26:53;;;;;;;9.73;2.25;;;;;;;13.11;76.13;101316.94;5023631;28;20061;-83
2022/06/20 02:29:23;;;;;;;9.80;2.33;;;;;;;13.09;76.87;101326.72;5004194;28;20026;-83
2022/06/20 02:31:59;;;;;;;11.40;2.38;;;;;;;13.06;76.06;101319.72;4995153;28;20034;-84
2022/06/20 02:34:26;;;;;;;8.57;2.25;;;;;;;13.07;76.28;101315.25;5003742;28;20482;-83
2022/06/20 02:36:54;;;;;;;10.52;2.60;;;;;;;13.04;75.55;101312.69;5012300;28;20041;-84
2022/06/20 02:39:21;;;;;;;10.60;2.33;;;;;;;13.04;76.30;101312.69;5013304;28;20110;-84
2022/06/20 02:41:50;;;;;;;12.50;2.53;;;;;;;13.00;75.57;101324.28;4995780;28;20048;-84
2022/06/20 02:44:21;;;;;;;11.10;2.60;;;;;;;12.97;75.50;101324.38;5012126;28;20046;-83
2022/06/20 02:46:49;;;;;;;6.90;2.25;;;;;;;12.97;75.35;101327.91;5010736;28;20037;-84
2022/06/20 02:49:18;;;;;;;13.55;2.72;;;;;;;12.93;76.12;101318.25;4992396;28;20041;-83
2022/06/20 02:51:51;;;;;;;11.18;2.30;;;;;;;12.93;76.29;101306.75;5010310;28;20112;-83
2022/06/20 02:54:20;;;;;;;8.27;2.10;;;;;;;12.86;75.97;101300.72;4999196;28;20046;-84
2022/06/20 02:56:51;;;;;;;9.48;3.05;;;;;;;12.83;76.13;101299.00;5011625;28;20444;-84
2022/06/20 02:59:23;;;;;;;11.35;2.30;;;;;;;12.83;76.27;101284.81;5013050;28;20041;-84
2022/06/20 03:02:02;;;;;;;9.27;2.05;;;;;;;12.82;75.96;101286.59;5011312;28;20157;-83
2022/06/20 03:04:32;;;;;;;11.07;2.40;;;;;;;12.79;76.42;101272.53;5031484;28;20114;-83
2022/06/20 03:07:02;;;;;;;8.02;2.38;;;;;;;12.78;75.99;101265.47;4999926;28;20030;-84
2022/06/20 03:09:31;;;;;;;9.38;2.05;;;;;;;12.75;76.21;101261.09;5028005;28;20203;-83
2022/06/20 03:11:57;;;;;;;10.23;2.28;;;;;;;12.75;76.32;101258.44;5011345;28;20095;-83
2022/06/20 03:14:46;;;;;;;10.00;2.72;;;;;;;12.74;76.49;101251.38;4978776;28;20041;-83
2022/06/20 03:17:15;;;;;;;9.57;2.15;;;;;;;12.74;76.47;101246.06;4995204;28;20466;-83
2022/06/20 03:19:45;;;;;;;12.27;2.92;;;;;;;12.73;76.08;101254.06;4998822;28;20497;-83
2022/06/20 03:22:15;;;;;;;9.43;2.50;;;;;;;12.76;76.28;101259.28;4995017;28;20022;-83
2022/06/20 03:24:42;;;;;;;10.52;2.28;;;;;;;12.77;76.62;101264.59;5009799;28;20112;-83
2022/06/20 03:27:12;;;;;;;8.20;2.35;;;;;;;12.79;76.14;101277.84;5007690;28;20520;-83
2022/06/20 03:29:40;;;;;;;11.13;2.10;;;;;;;12.79;75.93;101281.38;5021460;28;20030;-83
2022/06/20 03:32:06;;;;;;;6.32;2.05;;;;;;;12.80;76.83;101287.56;5010446;28;20424;-83
2022/06/20 03:34:32;;;;;;;8.65;2.15;;;;;;;12.81;77.42;101302.59;5010887;28;20046;-83
2022/06/20 03:36:58;;;;;;;11.82;3.00;;;;;;;12.82;78.18;101310.53;4993931;28;20152;-83
2022/06/20 03:39:23;;;;;;;9.27;2.28;;;;;;;12.83;78.01;101308.75;4994645;28;20105;-83
2022/06/20 03:41:50;;;;;;;11.60;2.38;;;;;;;12.86;78.02;101306.91;5010549;28;20042;-83
2022/06/20 03:44:28;;;;;;;8.80;2.20;;;;;;;12.89;78.67;101311.28;5012188;28;20041;-83
2022/06/20 03:47:05;;;;;;;10.82;2.05;;;;;;;12.91;77.91;101304.13;4996860;28;20343;-83
2022/06/20 03:49:37;;;;;;;11.70;2.55;;;;;;;12.95;78.92;101297.81;4994281;28;20034;-83
2022/06/20 03:52:10;;;;;;;11.02;2.30;;;;;;;12.98;78.42;101319.03;5010499;28;20128;-83
2022/06/20 03:54:58;;;;;;;9.57;2.63;;;;;;;13.03;77.99;101334.84;5012028;28;20084;-83
2022/06/20 03:57:40;;;;;;;10.90;2.65;;;;;;;13.06;78.03;101337.44;5011709;28;20029;-83
2022/06/20 04:00:38;;;;;;;9.07;2.38;;;;;;;13.10;78.60;101353.31;5026894;28;20457;-82
2022/06/20 04:03:12;;;;;;;9.63;2.42;;;;;;;13.13;77.77;101353.22;5004412;28;20442;-83
2022/06/20 04:06:09;;;;;;;10.27;2.20;;;;;;;13.18;77.39;101352.22;5010504;28;20084;-83
2022/06/20 04:12:01;;;;;;;11.00;2.30;;;;;;;13.25;77.47;101353.81;5013632;28;20620;-83
2022/06/20 04:14:38;;;;;;;10.57;2.20;;;;;;;13.27;77.48;101360.00;4995328;28;20033;-83
2022/06/20 04:20:53;;;;;;;8.52;2.20;;;;;;;13.28;77.53;101370.63;4982725;28;20042;-82
2022/06/20 04:23:27;;;;;;;12.43;2.22;;;;;;;13.33;77.68;101371.38;5005558;28;20030;-82
2022/06/20 04:26:14;;;;;;;7.05;2.08;;;;;;;13.40;77.31;101374.78;4999986;28;20188;-82
2022/06/20 04:29:09;;;;;;;7.25;1.90;;;;;;;13.44;77.91;101380.88;5009838;28;20546;-83
2022/06/20 04:32:17;;;;;;;10.70;2.30;;;;;;;13.50;77.35;101384.25;4991964;28;20026;-83
2022/06/20 04:34:49;;;;;;;8.63;2.47;;;;;;;13.51;76.88;101385.13;4998696;28;20069;-82
2022/06/20 04:37:29;;;;;;;11.93;2.22;;;;;;;13.55;77.44;101392.13;4996859;28;20050;-83
2022/06/20 04:40:09;;;;;;;11.68;2.75;;;;;;;13.55;76.95;101393.00;5017710;28;20038;-82
2022/06/20 04:42:47;;;;;;;10.98;3.10;;;;;;;13.59;77.14;101390.25;4999997;28;20026;-82
2022/06/20 04:46:07;;;;;;;8.60;2.50;;;;;;;13.63;77.15;101392.81;5012254;28;20080;-83
2022/06/20 04:48:33;;;;;;;7.25;2.17;;;;;;;13.65;77.71;101393.63;4988442;28;20034;-82
2022/06/20 04:51:08;;;;;;;9.65;2.63;;;;;;;13.68;78.25;101398.00;4986411;28;20362;-82
2022/06/20 04:53:40;;;;;;;13.30;2.85;;;;;;;13.73;78.46;101412.06;5009781;28;20057;-82
2022/06/20 04:56:10;;;;;;;9.43;2.33;;;;;;;13.76;78.13;101407.53;5042590;28;20038;-82
2022/06/20 04:58:42;;;;;;;8.25;2.35;;;;;;;13.82;77.74;101414.47;5009671;28;20034;-82
2022/06/20 05:01:08;;;;;;;7.38;2.40;;;;;;;13.88;77.57;101414.31;5009627;28;20050;-82
2022/06/20 05:03:41;;;;;;;9.07;2.13;;;;;;;13.93;76.91;101406.22;4993270;28;20357;-82
2022/06/20 05:06:13;;;;;;;13.48;2.72;;;;;;;13.93;76.04;101404.41;5009908;28;20155;-82
2022/06/20 05:08:45;;;;;;;7.35;2.00;;;;;;;13.99;76.01;101416.69;5009841;28;20074;-83
2022/06/20 05:11:32;;;;;;;7.43;2.50;;;;;;;14.00;75.64;101412.25;4990026;28;20046;-82
2022/06/20 05:14:09;;;;;;;8.77;2.25;;;;;;;14.01;74.88;101403.34;5006014;28;20214;-82
2022/06/20 05:16:42;;;;;;;7.75;2.05;;;;;;;14.03;75.15;101417.50;5002545;28;20467;-82
2022/06/20 05:19:46;;;;;;;10.60;2.80;;;;;;;14.08;74.99;101423.56;5022661;28;20038;-82
2022/06/20 05:22:24;;;;;;;14.25;2.58;;;;;;;14.07;74.56;101416.47;4984733;28;20046;-82
2022/06/20 05:24:53;;;;;;;11.60;2.78;;;;;;;14.08;75.01;101415.59;5005518;28;20045;-82
2022/06/20 05:27:33;;;;;;;10.57;2.15;;;;;;;14.14;74.62;101432.28;5009424;28;20049;-82
2022/06/20 05:30:01;;;;;;;5.93;2.10;;;;;;;14.16;74.41;101434.88;5006352;28;20137;-82
2022/06/20 05:32:40;;;;;;;8.98;2.10;;;;;;;14.17;74.62;101431.31;4982643;28;20041;-82
2022/06/20 05:35:12;;;;;;;11.88;3.40;;;;;;;14.22;74.39;101433.81;5009204;28;20584;-82
2022/06/20 05:37:45;;;;;;;11.85;2.17;;;;;;;14.27;74.19;101437.25;5010642;28;20036;-82
2022/06/20 05:40:25;;;;;;;7.88;2.40;;;;;;;14.34;74.80;101425.50;5010432;28;20056;-81
2022/06/20 05:42:50;;;;;;;9.65;2.67;;;;;;;14.37;74.51;101420.09;5009485;28;20037;-81
2022/06/20 05:45:20;;;;;;;8.43;2.53;;;;;;;14.41;74.44;101425.31;5009312;28;20390;-81
2022/06/20 05:47:50;;;;;;;11.18;2.55;;;;;;;14.45;74.03;101425.22;5009069;28;20038;-81
2022/06/20 05:50:42;;;;;;;10.45;2.70;;;;;;;14.51;73.77;101422.34;5009256;28;20363;-81
2022/06/20 05:53:24;;;;;;;5.28;2.30;;;;;;;14.55;74.04;101424.06;4992872;28;20034;-82
2022/06/20 05:55:51;;;;;;;7.85;2.30;;;;;;;14.58;74.39;101432.81;5004995;28;20510;-81
2022/06/20 05:58:44;;;;;;;11.35;2.50;;;;;;;14.66;73.80;101429.06;4989724;28;20110;-81
2022/06/20 06:01:30;;;;;;;5.65;2.17;;;;;;;14.70;73.71;101430.72;4983232;28;20042;-81
2022/06/20 06:04:10;;;;;;;8.40;2.35;;;;;;;14.78;73.38;101426.03;5011538;28;20527;-81
2022/06/20 06:06:45;;;;;;;9.07;2.50;;;;;;;14.79;72.84;101441.13;5016265;28;20368;-81
2022/06/20 06:09:20;;;;;;;14.70;2.85;;;;;;;14.86;71.83;101444.47;5010296;28;20026;-81
2022/06/20 06:11:54;;;;;;;8.57;2.58;;;;;;;14.82;71.49;101449.91;5012360;28;20042;-81
2022/06/20 06:14:36;;;;;;;12.25;2.78;;;;;;;14.91;71.80;101448.75;5013789;28;20030;-81
2022/06/20 06:17:18;;;;;;;9.18;2.20;;;;;;;14.87;71.66;101449.78;5012550;28;20116;-81
2022/06/20 06:19:56;;;;;;;8.55;2.08;;;;;;;14.89;70.93;101452.41;5012102;28;20534;-81
2022/06/20 06:22:30;;;;;;;10.30;2.53;;;;;;;14.90;69.92;101454.13;5039238;28;20088;-81
2022/06/20 06:25:00;;;;;;;9.05;2.40;;;;;;;14.99;69.80;101452.06;5012274;28;20029;-81
2022/06/20 06:27:34;;;;;;;5.75;1.73;;;;;;;15.12;69.95;101441.88;5028483;28;20025;-80
2022/06/20 06:30:32;;;;;;;7.32;2.08;;;;;;;15.24;69.31;101452.16;5012030;28;20072;-81
2022/06/20 06:33:10;;;;;;;6.80;1.77;;;;;;;15.35;69.10;101451.81;5012081;28;20084;-81
2022/06/20 06:35:50;;;;;;;14.40;2.58;;;;;;;15.45;69.30;101449.72;4999718;28;20061;-81
2022/06/20 06:38:36;;;;;;;11.10;2.30;;;;;;;15.51;68.27;101448.69;5011813;28;20108;-81
2022/06/20 06:41:06;;;;;;;8.60;2.40;;;;;;;15.49;67.30;101454.94;5011889;28;20030;-80
2022/06/20 06:43:41;;;;;;;11.73;1.98;;;;;;;15.52;67.68;101455.75;5010808;28;20033;-81
2022/06/20 06:46:14;;;;;;;9.70;2.42;;;;;;;15.60;67.33;101456.38;5025384;28;20049;-81
2022/06/20 06:48:52;;;;;;;8.70;1.92;;;;;;;15.67;66.55;101463.25;5009845;28;20490;-81
2022/06/20 06:51:28;;;;;;;10.35;2.40;;;;;;;15.77;66.35;101464.72;5011663;28;20037;-81
2022/06/20 06:54:02;;;;;;;12.75;2.72;;;;;;;15.90;66.44;101463.41;4999453;28;20033;-81
2022/06/20 06:56:37;;;;;;;8.25;2.25;;;;;;;15.92;65.24;101471.34;5011964;28;20172;-81
2022/06/20 06:59:18;;;;;;;9.82;2.40;;;;;;;15.91;65.31;101467.81;5011611;28;20519;-81
2022/06/20 07:01:48;;;;;;;7.03;2.30;;;;;;;16.11;65.96;101472.47;4994765;28;20026;-81
2022/06/20 07:04:26;;;;;;;6.47;2.40;;;;;;;16.32;64.35;101476.19;4993316;28;20045;-81
2022/06/20 07:07:16;;;;;;;6.35;2.15;;;;;;;16.49;63.43;101475.59;5005705;28;20093;-80
2022/06/20 07:09:49;;;;;;;10.85;2.30;;;;;;;16.61;62.63;101478.72;5008388;28;20026;-80
2022/06/20 07:12:30;;;;;;;7.25;1.85;;;;;;;16.73;61.56;101486.28;5006662;28;20030;-80
2022/06/20 07:15:10;;;;;;;7.47;2.03;;;;;;;16.80;61.36;101486.97;5008014;28;20451;-80
2022/06/20 07:17:45;;;;;;;10.13;2.00;;;;;;;16.84;61.50;101485.91;5041354;28;20033;-80
2022/06/20 07:20:11;;;;;;;9.65;2.42;;;;;;;16.91;61.25;101499.03;5011527;28;20461;-80
2022/06/20 07:22:40;;;;;;;10.85;2.35;;;;;;;17.01;61.77;101488.81;5012416;28;20025;-80
2022/06/20 07:25:13;;;;;;;10.07;2.50;;;;;;;17.25;61.24;101494.16;5011482;28;20099;-80
2022/06/20 07:27:49;;;;;;;8.20;2.33;;;;;;;17.49;61.16;101482.47;5012474;28;20061;-80
2022/06/20 07:30:30;;;;;;;13.95;2.30;;;;;;;17.68;61.25;101492.41;5012426;28;20033;-80
2022/06/20 07:33:01;;;;;;;9.82;2.28;;;;;;;17.78;58.80;101489.31;5010139;28;20112;-81
2022/06/20 07:35:33;;;;;;;12.95;3.13;;;;;;;17.75;56.86;101489.41;5010069;28;20445;-81
2022/06/20 07:38:21;;;;;;;8.57;2.42;;;;;;;17.68;58.19;101496.00;5010934;28;20095;-81
2022/06/20 07:40:53;;;;;;;11.57;2.33;;;;;;;17.76;57.22;101484.97;4992797;28;20490;-82
2022/06/20 07:43:22;;;;;;;8.18;2.03;;;;;;;17.86;56.14;101482.81;4992801;28;20038;-82
2022/06/20 07:45:50;;;;;;;6.78;2.05;;;;;;;17.81;54.50;101491.03;5005458;28;20084;-81
2022/06/20 07:48:18;;;;;;;11.18;2.35;;;;;;;17.76;55.57;101491.19;5005704;28;20497;-80
2022/06/20 07:50:55;;;;;;;7.22;2.25;;;;;;;17.86;55.78;101494.38;5010764;28;20034;-80
2022/06/20 07:53:43;;;;;;;6.30;2.42;;;;;;;18.04;55.41;101501.63;5010895;28;20037;-80
2022/06/20 07:56:18;;;;;;;9.15;2.35;;;;;;;18.18;53.94;101503.75;5000541;28;20053;-80
2022/06/20 07:58:54;;;;;;;5.68;2.20;;;;;;;18.12;53.62;101505.81;5010686;28;20042;-80
2022/06/20 08:01:54;;;;;;;6.28;2.17;;;;;;;18.04;54.60;101500.78;5011812;28;20045;-80
2022/06/20 08:04:27;;;;;;;9.48;2.75;;;;;;;17.91;52.16;101507.59;4991701;28;20078;-80
2022/06/20 08:07:00;;;;;;;8.57;2.33;;;;;;;17.87;52.24;101514.88;5023740;28;20042;-80
2022/06/20 08:09:40;;;;;;;5.90;1.92;;;;;;;18.09;53.18;101506.81;5010061;28;20038;-79
2022/06/20 08:12:05;;;;;;;10.48;2.55;;;;;;;18.42;52.49;101503.59;5007047;28;20038;-78
2022/06/20 08:14:52;;;;;;;7.20;2.17;;;;;;;18.54;51.89;101505.72;4994134;28;20030;-80
2022/06/20 08:17:18;;;;;;;7.97;2.83;;;;;;;18.82;51.81;101508.09;5010105;28;20121;-79
2022/06/20 08:19:45;;;;;;;8.73;2.40;;;;;;;18.96;50.10;101504.75;4993654;28;20113;-80
2022/06/20 08:22:31;;;;;;;6.75;2.08;;;;;;;19.04;49.51;101502.59;5006455;28;20039;-79
2022/06/20 08:25:05;;;;;;;6.95;2.03;;;;;;;18.92;49.79;101503.19;5020813;28;20141;-78
2022/06/20 08:27:42;;;;;;;7.43;2.60;;;;;;;18.73;49.63;101507.59;5023410;28;20139;-79
2022/06/20 08:30:12;;;;;;;7.03;2.03;;;;;;;18.58;49.34;101512.72;5009618;28;20350;-79
2022/06/20 08:32:50;;;;;;;6.60;2.30;;;;;;;18.50;50.70;101522.06;5008321;28;20034;-78
2022/06/20 08:35:27;;;;;;;10.68;2.63;;;;;;;18.26;51.17;101520.34;5006492;28;20398;-79
2022/06/20 08:38:02;;;;;;;10.48;2.70;;;;;;;18.08;51.23;101525.66;5034837;28;20048;-79
2022/06/20 08:40:40;;;;;;;10.40;2.22;;;;;;;18.00;51.81;101528.63;5011378;28;20033;-79
2022/06/20 08:43:37;;;;;;;7.70;2.70;;;;;;;17.92;52.15;101533.44;5011430;28;20034;-79
2022/06/20 08:46:40;;;;;;;8.25;2.25;;;;;;;18.17;52.44;101520.75;5026143;28;20092;-79
2022/06/20 08:49:11;;;;;;;9.40;2.85;;;;;;;18.70;51.41;101524.72;4997628;28;20080;-78
2022/06/20 08:52:06;;;;;;;8.32;2.55;;;;;;;18.92;50.17;101532.69;5009853;28;20037;-78
2022/06/20 08:54:50;;;;;;;13.80;2.40;;;;;;;18.83;50.86;101539.34;5011125;28;20038;-79
2022/06/20 08:57:31;;;;;;;10.50;2.60;;;;;;;18.74;51.55;101537.03;5009962;28;20053;-78
2022/06/20 09:00:00;;;;;;;;;;;;;;;18.97;51.70;101549.47;5010248;28;20173;-78
2022/06/20 09:02:40;;;;;;;8.50;3.20;;;;;;;18.98;49.69;101551.19;5010559;28;19940;-78
2022/06/20 09:05:30;;;;;;;9.27;2.75;;;;;;;18.88;49.62;101547.19;5011236;28;20220;-78
2022/06/20 09:08:10;;;;;;;5.80;2.33;;;;;;;18.60;48.43;101556.44;5011198;28;20030;-79
2022/06/20 09:11:03;;;;;;;4.82;2.05;;;;;;;18.69;46.77;101550.69;5011068;28;20141;-78
2022/06/20 09:13:50;;;;;;;6.15;2.50;;;;;;;18.80;46.34;101546.66;5001924;28;20033;-79
2022/06/20 09:16:44;;;;;;;7.53;2.30;;;;;;;19.02;47.06;101547.44;5005102;28;20129;-78
2022/06/20 09:19:40;;;;;;;11.07;2.67;;;;;;;19.52;46.53;101546.84;4992864;28;20505;-80
2022/06/20 09:22:35;;;;;;;7.68;2.33;;;;;;;19.85;46.02;101548.88;5009270;28;20487;-78
2022/06/20 09:25:18;;;;;;;8.05;3.15;;;;;;;19.90;44.01;101552.19;5004081;28;20463;-78
2022/06/20 09:28:04;;;;;;;9.93;2.88;;;;;;;19.86;45.68;101550.63;5003113;28;20152;-78
2022/06/20 09:31:12;;;;;;;11.18;2.67;;;;;;;19.65;45.32;101555.19;5004126;28;20034;-78
2022/06/20 09:34:28;;;;;;;10.77;2.83;;;;;;;19.56;46.60;101555.66;5009632;28;20061;-78
2022/06/20 09:36:59;;;;;;;12.68;3.08;;;;;;;19.55;45.20;101554.75;5018764;28;20176;-78
2022/06/20 09:39:40;;;;;;;8.48;2.80;;;;;;;19.96;46.04;101559.13;5014731;28;20099;-78
2022/06/20 09:42:17;;;;;;;16.08;3.25;;;;;;;20.30;45.08;101554.69;5014414;28;20038;-79
2022/06/20 09:45:04;;;;;;;7.00;2.45;;;;;;;20.57;44.34;101555.13;5014559;28;20034;-78
2022/06/20 09:48:00;;;;;;;11.57;2.95;;;;;;;20.59;43.87;101551.41;5001709;28;20076;-78
2022/06/20 09:50:35;;;;;;;11.73;2.53;;;;;;;20.59;43.73;101553.22;5012883;28;20037;-79
2022/06/20 09:53:16;;;;;;;8.57;2.60;;;;;;;20.91;43.89;101551.50;5013224;28;20393;-78
2022/06/20 09:55:43;;;;;;;8.50;3.00;;;;;;;20.82;41.95;101562.75;4999074;28;20026;-79
2022/06/20 09:58:14;;;;;;;9.50;2.70;;;;;;;20.91;43.06;101550.66;5029472;28;20038;-78
2022/06/20 10:00:51;;;;;;;9.40;2.63;;;;;;;21.29;42.17;101543.16;5029214;28;20389;-78
2022/06/20 10:03:16;;;;;;;8.27;3.00;;;;;;;21.40;40.85;101546.16;5012699;28;20050;-79
2022/06/20 10:06:05;;;;;;;9.45;3.40;;;;;;;21.00;43.52;101542.94;5011336;28;20037;-78
2022/06/20 10:08:53;;;;;;;9.77;2.97;;;;;;;20.80;43.56;101545.84;4984722;28;20367;-78
2022/06/20 10:11:39;;;;;;;8.25;2.88;;;;;;;20.71;41.92;101557.97;4999701;28;20033;-78
2022/06/20 10:14:31;;;;;;;9.82;2.95;;;;;;;20.71;42.78;101554.41;5045607;28;20120;-78
2022/06/20 10:17:34;;;;;;;13.82;3.47;;;;;;;20.95;42.64;101555.78;5012657;28;20040;-78
2022/06/20 10:20:40;;;;;;;9.98;3.00;;;;;;;20.74;42.52;101556.94;5002444;28;20034;-78
2022/06/20 10:23:24;;;;;;;10.45;2.90;;;;;;;20.76;42.93;101560.41;4998641;28;20030;-78
2022/06/20 10:25:59;;;;;;;13.88;3.35;;;;;;;20.97;42.94;101571.88;5012110;28;20093;-78
2022/06/20 10:28:33;;;;;;;11.40;2.78;;;;;;;21.41;42.18;101560.50;5012323;28;20041;-78
2022/06/20 10:31:19;;;;;;;10.23;3.13;;;;;;;21.44;42.56;101569.28;5028667;28;20517;-78
2022/06/20 10:34:22;;;;;;;13.02;2.90;;;;;;;21.62;42.58;101571.91;5013072;28;20040;-79
2022/06/20 10:37:18;;;;;;;10.15;2.70;;;;;;;21.89;41.62;101564.91;5012958;28;20470;-78
2022/06/20 10:39:57;;;;;;;12.35;2.92;;;;;;;22.33;40.96;101571.41;5018320;28;20042;-78
2022/06/20 10:42:33;;;;;;;9.00;2.90;;;;;;;22.69;39.67;101572.81;5000403;28;20073;-78
2022/06/20 10:45:15;;;;;;;8.60;2.70;;;;;;;22.75;39.71;101576.03;5011888;28;20100;-78
2022/06/20 10:48:02;;;;;;;11.15;2.97;;;;;;;22.12;38.87;101578.88;5011813;28;20042;-78
2022/06/20 10:50:45;;;;;;;10.48;3.15;;;;;;;21.50;39.31;101576.16;5025049;28;20076;-78
2022/06/20 10:53:31;;;;;;;9.85;2.75;;;;;;;21.51;41.14;101585.97;5003699;28;20038;-78
2022/06/20 10:56:38;;;;;;;10.70;2.80;;;;;;;21.83;41.76;101585.97;4999862;28;20120;-78
2022/06/20 10:59:24;;;;;;;9.35;3.03;;;;;;;22.30;37.36;101587.75;4971497;28;20229;-78
2022/06/20 11:01:57;;;;;;;12.45;2.70;;;;;;;22.53;38.43;101589.09;5005338;28;20046;-78
2022/06/20 11:04:29;;;;;;;10.13;3.05;;;;;;;22.54;37.64;101583.59;4978359;28;20502;-78
2022/06/20 11:07:33;;;;;;;9.95;3.40;;;;;;;22.35;39.11;101587.47;5004570;28;20038;-78
2022/06/20 11:10:27;;;;;;;10.55;2.85;;;;;;;22.23;40.48;101591.75;4995921;28;20442;-78
2022/06/20 11:13:16;;;;;;;6.75;2.47;;;;;;;22.38;39.99;101593.59;5011197;28;20030;-79
2022/06/20 11:16:06;;;;;;;9.00;3.00;;;;;;;22.81;38.65;101593.66;5030061;28;20050;-78
2022/06/20 11:18:32;;;;;;;9.45;2.95;;;;;;;22.93;37.89;101592.91;5012756;28;20045;-78
2022/06/20 11:21:12;;;;;;;9.32;2.90;;;;;;;22.95;38.65;101593.69;5011380;28;20040;-78
2022/06/20 11:23:57;;;;;;;10.77;3.00;;;;;;;22.88;39.47;101596.88;5007581;28;20037;-78
2022/06/20 11:26:39;;;;;;;11.35;2.90;;;;;;;22.35;37.84;101598.28;4996109;28;20605;-78
2022/06/20 11:29:38;;;;;;;7.40;2.75;;;;;;;22.64;40.60;101600.09;5008100;28;20178;-78
2022/06/20 11:32:23;;;;;;;6.93;2.25;;;;;;;23.05;38.09;101596.72;5014439;28;20050;-78
2022/06/20 11:34:58;;;;;;;7.97;2.85;;;;;;;23.18;36.56;101604.94;5012330;28;20044;-78
2022/06/20 11:37:33;;;;;;;8.10;2.80;;;;;;;23.35;37.36;101591.22;5011045;28;20048;-78
2022/06/20 11:40:13;;;;;;;7.07;2.47;;;;;;;22.84;36.26;101593.47;5011181;28;20030;-78
2022/06/20 11:43:02;;;;;;;10.23;2.80;;;;;;;22.44;37.21;101598.59;5003392;28;20386;-78
2022/06/20 11:45:31;;;;;;;11.38;2.80;;;;;;;22.46;37.28;101595.81;5008468;28;20443;-78
2022/06/20 11:48:31;;;;;;;10.40;2.72;;;;;;;23.18;37.65;101588.72;5003016;28;20037;-78
2022/06/20 11:51:30;;;;;;;9.00;2.63;;;;;;;23.51;35.41;101590.22;5012158;28;20026;-78
2022/06/20 11:54:35;;;;;;;10.18;2.70;;;;;;;23.24;36.42;101592.84;5010763;28;20037;-78
2022/06/20 11:57:24;;;;;;;8.32;3.00;;;;;;;22.98;36.21;101589.97;5018976;28;20096;-78
2022/06/20 12:00:05;;;;;;;12.25;2.90;;;;;;;22.88;37.58;101595.03;5010737;28;20045;-78
2022/06/20 12:03:05;;;;;;;7.47;2.58;;;;;;;23.29;37.49;101591.59;4997566;28;20048;-78
2022/06/20 12:05:40;;;;;;;9.02;2.70;;;;;;;23.48;35.95;101601.25;5010764;28;20044;-78
2022/06/20 12:08:18;;;;;;;11.48;2.60;;;;;;;23.39;35.36;101597.28;5011725;28;20106;-78
2022/06/20 12:10:53;;;;;;;9.60;2.42;;;;;;;23.38;35.51;101595.56;5011718;28;20457;-78
2022/06/20 12:13:33;;;;;;;9.45;2.58;;;;;;;23.38;36.49;101593.72;5010439;28;20499;-78
2022/06/20 12:16:08;;;;;;;;;;;;;;;23.60;36.53;101585.09;5010775;28;20130;-78
2022/06/20 12:23:18;;;;;;;5.00;1.83;;;;;;;23.46;34.40;101585.09;5011725;28;19913;-78
2022/06/20 12:24:13;;;;;;;9.52;2.80;;;;;;;23.09;34.77;101583.88;4993001;28;20379;-78